Burnett, Indiana
Current Conditions -  °F | °C
As of 4:53 AM on Saturday 29 Nov 2014 (Local Time) from KHUF Reporting Station
Clear Clear  
Wind Chill: 28°   Ceiling: Unl
Heat Index: 36°   Visibility: 10mi
Dew Point: 27°   Wind: 10mph
Humidity: 70%   Direction: 180°S
Pressure: 29.92"   Gusts: NA
Location:  39.543°N, 87.3153°W
Report Text: KHUF 290953Z 18009KT 10SM CLR 02/M03 A2992 RMK AO2 SLP135 T00221028
Loading
Personal Weather Stations






























Interactive Weather Map New forecast layout! Learn more

10-Day Weather Forecast

Advertisements
Track Severe Weather on mobile